Time;durP1;ratioP1;P1;durP2;ratioP2;P2;SDS_P1;SDS_P2;PMS_P1;PMS_P2;Temp;Humidity;BMP_temperature;BMP_pressure;BME280_temperature;BME280_humidity;BME280_pressure;Samples;Min_cycle;Max_cycle;Signal;HPM_P1;HPM_P2
2021/05/17 05:00:45;;;;;;;18.87;12.85;;;;;;;14.27;100.00;98931.91;1843471;76;22182;-69
2021/05/17 05:03:12;;;;;;;9.98;7.72;;;;;;;14.40;100.00;98921.15;1806526;77;21213;-69
2021/05/17 05:05:39;;;;;;;7.15;6.45;;;;;;;14.66;100.00;98939.81;1810131;77;21440;-69
2021/05/17 05:08:06;;;;;;;7.92;6.20;;;;;;;14.93;100.00;98935.98;1817410;77;20966;-70
2021/05/17 05:10:34;;;;;;;6.00;5.25;;;;;;;15.20;100.00;98940.47;1803233;77;20998;-69
2021/05/17 05:13:05;;;;;;;8.08;5.15;;;;;;;15.44;98.79;98933.44;1820955;77;20999;-71
2021/05/17 05:15:33;;;;;;;6.78;4.80;;;;;;;15.65;97.40;98933.23;1809834;77;20897;-73
2021/05/17 05:18:01;;;;;;;4.87;4.47;;;;;;;15.84;95.84;98925.28;1797012;77;21572;-66
2021/05/17 05:20:30;;;;;;;5.12;4.67;;;;;;;15.98;93.82;98930.05;1799186;79;21033;-77
2021/05/17 05:22:57;;;;;;;7.25;4.15;;;;;;;16.09;92.94;98913.72;1780528;79;21126;-68
2021/05/17 05:25:28;;;;;;;4.87;3.90;;;;;;;16.18;91.41;98901.02;1781491;79;21016;-72
2021/05/17 05:27:56;;;;;;;6.35;4.70;;;;;;;16.22;90.06;98884.81;1806277;77;21619;-74
2021/05/17 05:33:16;;;;;;;5.37;4.25;;;;;;;16.34;89.91;98889.36;1721403;81;21617;-64
2021/05/17 05:35:46;;;;;;;5.67;4.37;;;;;;;16.56;90.46;98903.34;1752149;80;20947;-68
2021/05/17 05:38:13;;;;;;;5.28;3.70;;;;;;;16.85;90.14;98894.38;1748011;81;21026;-70
2021/05/17 05:40:41;;;;;;;4.87;4.30;;;;;;;17.24;89.21;98877.69;1738325;81;21675;-69
2021/05/17 05:43:08;;;;;;;8.65;3.67;;;;;;;17.62;87.07;98857.94;1751506;81;21076;-69
2021/05/17 05:45:43;;;;;;;4.40;3.92;;;;;;;17.93;83.99;98852.48;1736598;80;21189;-72
2021/05/17 05:48:07;;;;;;;5.00;3.45;;;;;;;18.15;82.13;98850.20;1710271;82;21000;-76
2021/05/17 05:50:35;;;;;;;3.70;3.40;;;;;;;18.29;80.13;98858.78;1735777;80;21020;-76
2021/05/17 05:53:02;;;;;;;4.05;3.67;;;;;;;18.39;78.95;98866.05;1741031;80;21020;-71
2021/05/17 05:55:29;;;;;;;3.40;3.17;;;;;;;18.49;78.84;98864.55;1735840;80;21087;-70
2021/05/17 05:57:57;;;;;;;3.65;3.35;;;;;;;18.60;78.38;98857.66;1731092;80;21590;-71
2021/05/17 06:00:29;;;;;;;6.08;3.92;;;;;;;18.73;78.31;98855.84;1736185;81;21103;-75
2021/05/17 06:02:53;;;;;;;3.67;3.35;;;;;;;18.84;76.49;98854.98;1702951;83;20892;-77
2021/05/17 06:05:20;;;;;;;5.55;3.50;;;;;;;18.91;75.90;98845.41;1733009;82;21028;-67
2021/05/17 06:07:47;;;;;;;6.50;3.47;;;;;;;18.98;76.39;98837.66;1735359;80;21045;-71
2021/05/17 06:10:15;;;;;;;4.50;3.20;;;;;;;19.07;75.57;98842.42;1747088;80;21067;-70
2021/05/17 06:12:42;;;;;;;3.37;3.08;;;;;;;19.16;75.36;98852.79;1721546;82;21008;-72
2021/05/17 06:15:11;;;;;;;4.53;2.87;;;;;;;19.25;75.30;98849.60;1728676;82;20984;-74
2021/05/17 06:17:39;;;;;;;3.87;3.33;;;;;;;19.32;73.31;98858.00;1725223;82;21008;-77
2021/05/17 06:20:08;;;;;;;5.05;3.10;;;;;;;19.34;73.83;98848.59;1728334;80;21071;-72
2021/05/17 06:22:37;;;;;;;4.08;3.10;;;;;;;19.35;73.90;98833.08;1733956;80;21125;-74
2021/05/17 06:25:10;;;;;;;3.15;2.95;;;;;;;19.26;72.84;98839.38;1742499;80;20949;-71
2021/05/17 06:27:38;;;;;;;3.67;2.80;;;;;;;19.11;73.49;98845.05;1735713;81;21019;-77
2021/05/17 06:30:10;;;;;;;5.03;3.02;;;;;;;18.99;73.67;98832.20;1760131;79;21019;-75
2021/05/17 06:32:38;;;;;;;4.87;2.87;;;;;;;18.90;74.12;98824.48;1734153;80;21044;-68
2021/05/17 06:35:08;;;;;;;3.85;3.17;;;;;;;18.78;74.17;98846.45;1739802;80;21016;-73
2021/05/17 06:37:35;;;;;;;5.17;3.17;;;;;;;18.63;74.88;98845.46;1730500;80;21016;-79
2021/05/17 06:40:04;;;;;;;4.20;3.42;;;;;;;18.48;75.06;98818.91;1739033;81;21073;-78
2021/05/17 06:42:31;;;;;;;5.20;3.30;;;;;;;18.37;75.83;98809.22;1736831;81;20969;-78
2021/05/17 06:44:59;;;;;;;4.92;3.25;;;;;;;18.25;76.21;98823.20;1725037;80;21048;-68
2021/05/17 06:47:26;;;;;;;4.70;3.05;;;;;;;18.14;76.77;98844.59;1726535;82;21097;-71
2021/05/17 06:49:54;;;;;;;5.22;3.35;;;;;;;18.04;76.48;98885.58;1737482;82;20944;-68
2021/05/17 06:52:25;;;;;;;3.90;3.60;;;;;;;17.91;77.33;98882.11;1721359;82;21036;-67
2021/05/17 06:54:57;;;;;;;3.37;3.08;;;;;;;17.78;77.37;98852.77;1719461;82;21447;-73
2021/05/17 06:57:36;;;;;;;3.70;3.40;;;;;;;17.65;78.07;98845.81;1731022;82;21122;-72
2021/05/17 06:59:59;;;;;;;5.50;3.35;;;;;;;17.56;78.52;98800.70;1723258;82;21091;-69
2021/05/17 07:02:25;;;;;;;3.15;2.92;;;;;;;17.56;78.51;98765.98;1727101;82;20984;-71
2021/05/17 07:04:52;;;;;;;4.37;3.30;;;;;;;17.62;78.53;98760.54;1716787;82;21012;-68
2021/05/17 07:07:41;;;;;;;2.92;2.72;;;;;;;17.71;78.06;98762.24;1722295;82;21040;-68
2021/05/17 07:12:44;;;;;;;5.10;3.08;;;;;;;17.84;77.27;98747.29;1719801;82;20969;-69
2021/05/17 07:15:13;;;;;;;5.08;3.72;;;;;;;17.87;76.95;98721.45;1721707;81;22361;-71
2021/05/17 07:17:44;;;;;;;5.08;3.35;;;;;;;17.90;76.94;98728.20;1724609;83;21026;-73
2021/05/17 07:20:15;;;;;;;3.87;3.52;;;;;;;17.96;76.72;98736.77;1716937;82;20976;-75
2021/05/17 07:25:27;;;;;;;3.58;3.27;;;;;;;18.12;77.00;98718.30;1727188;80;21005;-69
2021/05/17 07:27:56;;;;;;;5.00;3.83;;;;;;;18.23;76.50;98715.83;1735081;82;21008;-67
2021/05/17 07:30:23;;;;;;;7.62;3.60;;;;;;;18.30;76.49;98720.77;1717275;82;20969;-68
2021/05/17 07:32:50;;;;;;;6.03;3.70;;;;;;;18.40;76.20;98722.70;1717672;82;20973;-70
2021/05/17 07:35:17;;;;;;;6.47;3.92;;;;;;;18.56;76.29;98733.72;1718910;82;21458;-71
2021/05/17 07:37:46;;;;;;;4.30;3.22;;;;;;;18.84;75.82;98751.30;1731758;80;21451;-70
2021/05/17 07:40:15;;;;;;;3.92;3.50;;;;;;;19.07;74.34;98754.85;1725537;82;20913;-74
2021/05/17 07:42:42;;;;;;;4.12;3.62;;;;;;;19.19;72.43;98773.78;1733067;82;20932;-70
2021/05/17 07:45:12;;;;;;;7.05;3.05;;;;;;;19.18;71.71;98815.17;1711793;82;21576;-70
2021/05/17 07:47:39;;;;;;;6.97;4.08;;;;;;;19.15;72.10;98816.02;1727278;80;21054;-71
2021/05/17 07:50:07;;;;;;;4.65;3.62;;;;;;;19.14;72.02;98815.19;1736210;82;21515;-70
2021/05/17 07:52:34;;;;;;;4.92;3.42;;;;;;;19.19;72.15;98830.52;1737115;82;20971;-70
2021/05/17 07:55:03;;;;;;;5.95;3.20;;;;;;;19.28;71.83;98875.16;1769152;79;20995;-72
2021/05/17 07:57:30;;;;;;;5.28;4.53;;;;;;;19.40;70.99;98928.42;1750236;79;20975;-72
2021/05/17 07:59:57;;;;;;;10.72;6.17;;;;;;;19.55;70.89;98945.75;1781772;78;21034;-70
2021/05/17 08:02:25;;;;;;;7.92;4.60;;;;;;;19.82;70.15;98926.00;1778815;79;21429;-72
2021/05/17 08:04:53;;;;;;;7.03;4.20;;;;;;;20.18;68.17;98894.58;1784145;79;20936;-74
2021/05/17 08:07:21;;;;;;;10.88;6.50;;;;;;;20.59;66.73;98894.64;1775149;79;20967;-72
2021/05/17 08:09:51;;;;;;;9.75;4.28;;;;;;;21.01;65.92;98907.01;1778703;79;20964;-71
2021/05/17 08:12:19;;;;;;;7.28;3.95;;;;;;;21.48;64.12;98892.14;1786142;79;21733;-70
2021/05/17 08:14:46;;;;;;;8.75;3.60;;;;;;;21.96;62.51;98880.92;1777426;79;20912;-72
2021/05/17 08:17:15;;;;;;;4.37;3.12;;;;;;;22.41;59.98;98864.34;1788446;79;20960;-69
2021/05/17 08:19:42;;;;;;;7.40;4.55;;;;;;;22.75;57.88;98836.28;1791877;79;21623;-71
2021/05/17 08:22:09;;;;;;;4.80;2.90;;;;;;;22.94;56.93;98829.80;1778107;79;21011;-70
2021/05/17 08:24:36;;;;;;;11.15;2.92;;;;;;;23.07;54.38;98819.77;1782166;79;22028;-72
2021/05/17 08:27:06;;;;;;;7.62;3.67;;;;;;;23.03;54.98;98797.78;1769650;79;20991;-70
2021/05/17 08:29:36;;;;;;;11.05;3.62;;;;;;;23.07;55.08;98786.58;1769321;79;21553;-71
2021/05/17 08:32:04;;;;;;;5.40;3.40;;;;;;;23.12;54.95;98770.88;1783628;79;20932;-71
2021/05/17 08:34:33;;;;;;;6.75;3.10;;;;;;;23.10;53.31;98770.26;1793334;79;20988;-72
2021/05/17 08:37:01;;;;;;;9.00;3.55;;;;;;;23.05;53.11;98771.86;1792980;79;21491;-72
2021/05/17 08:39:28;;;;;;;10.40;3.98;;;;;;;22.96;53.48;98765.89;1789711;79;20976;-71
2021/05/17 08:41:59;;;;;;;8.68;3.72;;;;;;;22.95;53.48;98785.48;1778242;79;20952;-75
2021/05/17 08:44:26;;;;;;;9.48;3.67;;;;;;;22.95;53.74;98798.76;1788587;79;20955;-72
2021/05/17 08:46:54;;;;;;;9.83;3.92;;;;;;;22.90;53.52;98795.86;1788128;79;21039;-71
2021/05/17 08:49:22;;;;;;;9.38;3.90;;;;;;;22.87;53.98;98784.31;1685298;83;21082;-71
2021/05/17 08:51:49;;;;;;;8.63;3.33;;;;;;;22.87;54.11;98781.14;1782988;79;21055;-71
2021/05/17 08:54:18;;;;;;;6.75;3.45;;;;;;;22.85;53.92;98780.52;1759654;79;21067;-73
2021/05/17 08:56:47;;;;;;;6.90;3.75;;;;;;;22.82;54.04;98780.09;1782086;79;21569;-73
2021/05/17 08:59:16;;;;;;;8.05;3.72;;;;;;;22.81;52.93;98788.55;1781105;79;20970;-73
2021/05/17 09:01:43;;;;;;;12.65;5.72;;;;;;;22.85;53.64;98800.94;1789631;79;20991;-73
2021/05/17 09:04:14;;;;;;;7.65;4.00;;;;;;;22.89;54.22;98812.80;1783197;79;21039;-72
2021/05/17 09:06:54;;;;;;;7.25;3.92;;;;;;;22.93;54.42;98824.67;1778772;79;21489;-72
2021/05/17 09:09:36;;;;;;;11.80;3.95;;;;;;;22.93;54.18;98819.37;1780662;79;21128;-72
2021/05/17 09:12:12;;;;;;;9.78;4.20;;;;;;;22.97;53.73;98824.60;1783091;79;20948;-73
2021/05/17 09:14:40;;;;;;;8.00;3.37;;;;;;;23.03;53.77;98813.21;1788996;79;21036;-75
2021/05/17 09:17:09;;;;;;;13.53;3.77;;;;;;;23.07;53.40;98824.26;1775237;79;21683;-72
2021/05/17 09:19:40;;;;;;;8.80;4.03;;;;;;;23.03;53.58;98845.58;1752080;79;20991;-73
2021/05/17 09:22:15;;;;;;;12.18;4.00;;;;;;;22.93;53.51;98841.42;1772655;79;20904;-72
2021/05/17 09:24:54;;;;;;;5.37;3.20;;;;;;;22.75;54.33;98864.14;1777340;79;20944;-73
2021/05/17 09:27:28;;;;;;;5.80;3.65;;;;;;;22.55;54.93;98844.89;1753572;79;21878;-74
2021/05/17 09:30:04;;;;;;;6.08;3.47;;;;;;;22.41;54.64;98863.53;1791210;79;20991;-71
2021/05/17 09:32:31;;;;;;;11.00;4.00;;;;;;;22.32;55.72;98860.21;1786816;79;20963;-73
2021/05/17 09:35:17;;;;;;;5.65;4.05;;;;;;;22.28;55.90;98841.70;1799265;79;20975;-69
2021/05/17 09:37:56;;;;;;;10.60;4.10;;;;;;;22.35;56.65;98877.58;1770755;79;20991;-74
2021/05/17 09:40:26;;;;;;;11.35;3.62;;;;;;;22.41;55.77;98867.51;1792589;79;20979;-72
2021/05/17 09:43:11;;;;;;;8.90;3.80;;;;;;;22.49;56.02;98870.86;1776852;79;21011;-76
2021/05/17 09:45:44;;;;;;;10.85;3.70;;;;;;;22.58;55.53;98867.56;1793805;79;20928;-75
2021/05/17 09:48:20;;;;;;;11.28;3.67;;;;;;;22.63;55.52;98870.47;1771479;79;20964;-72
2021/05/17 09:51:10;;;;;;;7.17;3.52;;;;;;;22.70;55.23;98870.03;1770068;79;21007;-74
2021/05/17 09:53:48;;;;;;;7.40;4.00;;;;;;;22.82;55.16;98889.73;1771764;79;21068;-75
2021/05/17 09:56:21;;;;;;;8.15;3.42;;;;;;;22.97;54.71;98894.95;1776830;79;21750;-75
2021/05/17 09:59:02;;;;;;;10.55;3.60;;;;;;;23.06;54.98;98915.55;1785197;79;20912;-75
2021/05/17 10:01:29;;;;;;;11.20;3.65;;;;;;;23.11;54.33;98915.80;1774648;79;21624;-74
2021/05/17 10:04:05;;;;;;;7.75;3.33;;;;;;;23.14;54.63;98948.61;1776536;78;21136;-76
2021/05/17 10:06:32;;;;;;;9.40;3.33;;;;;;;23.02;54.27;98961.58;1779683;79;21098;-76
2021/05/17 10:08:59;;;;;;;10.43;3.20;;;;;;;22.81;54.87;98974.86;1784304;78;20916;-77
2021/05/17 10:11:28;;;;;;;7.60;3.80;;;;;;;22.58;55.69;99009.52;1769683;79;20987;-74
2021/05/17 10:13:56;;;;;;;5.40;3.67;;;;;;;22.35;56.49;99015.49;1780296;79;21019;-72
2021/05/17 10:16:24;;;;;;;12.73;3.47;;;;;;;22.10;57.29;99018.44;1775029;79;21019;-75
2021/05/17 10:18:51;;;;;;;13.55;4.03;;;;;;;21.84;58.19;99028.17;1787560;79;21048;-71
2021/05/17 10:21:22;;;;;;;6.85;3.60;;;;;;;21.60;59.25;99041.66;1782607;78;21032;-75
2021/05/17 10:23:49;;;;;;;6.03;3.52;;;;;;;21.40;60.36;99047.98;1779359;78;20991;-79
2021/05/17 10:26:25;;;;;;;7.10;3.75;;;;;;;21.19;61.27;99050.47;1786577;79;21038;-73
2021/05/17 10:28:59;;;;;;;13.65;3.98;;;;;;;20.96;61.81;99051.78;1785377;79;20906;-72
2021/05/17 10:31:29;;;;;;;8.63;3.70;;;;;;;20.77;62.63;99058.88;1780073;79;21028;-71
2021/05/17 10:34:10;;;;;;;12.68;4.37;;;;;;;20.54;62.92;99088.73;1786215;79;20876;-69
2021/05/17 10:37:02;;;;;;;11.08;4.10;;;;;;;20.13;64.90;99056.33;1774325;79;20914;-69
2021/05/17 10:39:43;;;;;;;9.78;5.17;;;;;;;20.13;64.90;99056.33;1786737;79;20997;-71
2021/05/17 10:42:39;;;;;;;14.98;7.60;;;;;;;19.96;66.92;99089.93;1792878;79;21015;-71
2021/05/17 10:47:48;;;;;;;27.07;9.50;;;;;;;19.64;68.33;99073.63;1785868;79;20969;-70
2021/05/17 10:50:18;;;;;;;33.67;12.63;;;;;;;19.46;69.46;99047.88;1723991;82;21542;-70
2021/05/17 10:52:46;;;;;;;31.57;13.53;;;;;;;19.31;70.61;99043.76;1736696;82;20914;-71
2021/05/17 10:55:16;;;;;;;29.30;13.22;;;;;;;19.18;71.95;99017.06;1720678;82;21419;-72
2021/05/17 11:00:21;;;;;;;16.87;7.95;;;;;;;19.09;72.67;98956.53;1725083;82;21093;-72
2021/05/17 11:00:23;;;;;;;9.33;6.95;;;;;;;18.95;73.60;98853.81;1758694;79;21486;-71
2021/05/17 11:03:21;;;;;;;7.60;5.80;;;;;;;18.70;75.38;98707.19;1779387;78;20995;-72
2021/05/17 11:05:49;;;;;;;14.33;6.30;;;;;;;18.39;76.41;98748.77;1736109;81;20960;-71
2021/05/17 11:08:16;;;;;;;12.35;5.20;;;;;;;18.14;77.71;98714.19;1712547;81;20968;-68
2021/05/17 11:10:54;;;;;;;10.93;5.15;;;;;;;18.03;78.68;98667.11;1738310;81;20937;-69
2021/05/17 11:13:29;;;;;;;;;;;;;;;17.94;79.03;98672.41;1732744;81;21015;-71
2021/05/17 11:16:07;;;;;;;7.20;4.90;;;;;;;17.82;79.48;98689.52;1733871;81;20266;-69
2021/05/17 11:18:49;;;;;;;10.65;5.03;;;;;;;17.74;80.00;98720.28;1741772;81;20948;-69
2021/05/17 11:21:29;;;;;;;6.78;4.78;;;;;;;17.70;80.75;98729.49;1730224;81;21186;-72
2021/05/17 11:24:03;;;;;;;8.30;5.05;;;;;;;17.65;81.29;98757.13;1726386;81;20991;-72
2021/05/17 11:26:31;;;;;;;6.03;5.08;;;;;;;17.64;81.81;98785.72;1727253;81;20996;-71
2021/05/17 11:29:31;;;;;;;6.42;4.87;;;;;;;17.67;82.68;98796.45;1727477;81;20984;-74
2021/05/17 11:32:13;;;;;;;10.23;5.37;;;;;;;17.71;83.32;98799.09;1782958;78;20994;-71
2021/05/17 11:35:02;;;;;;;9.63;5.05;;;;;;;17.78;83.28;98781.67;1787144;78;20910;-64
2021/05/17 11:37:32;;;;;;;7.55;4.72;;;;;;;17.87;83.73;98781.20;1790463;79;21162;-71
2021/05/17 11:39:58;;;;;;;8.15;4.53;;;;;;;17.98;84.20;98781.71;1789233;78;20872;-70
2021/05/17 11:42:26;;;;;;;5.30;4.62;;;;;;;18.12;84.66;98786.80;1794550;78;20998;-73
2021/05/17 11:45:09;;;;;;;9.33;4.75;;;;;;;18.25;84.47;98791.59;1731282;79;21568;-72
2021/05/17 11:47:30;;;;;;;8.08;4.87;;;;;;;18.40;83.69;98791.23;1791946;78;20999;-72
2021/05/17 11:49:58;;;;;;;6.10;4.83;;;;;;;18.50;83.00;98791.89;1773199;78;21579;-74
2021/05/17 11:52:30;;;;;;;8.33;4.70;;;;;;;18.58;82.57;98784.47;1806017;78;20923;-72
2021/05/17 11:54:59;;;;;;;12.53;5.78;;;;;;;18.59;82.21;98813.30;1787998;79;21009;-72
2021/05/17 11:57:34;;;;;;;12.23;5.70;;;;;;;18.58;82.59;98839.33;1780125;78;20918;-72
2021/05/17 12:00:13;;;;;;;7.25;4.90;;;;;;;18.54;82.60;98835.37;1785490;78;20975;-72
2021/05/17 12:02:47;;;;;;;8.03;4.62;;;;;;;18.52;82.91;98832.58;1801657;78;21023;-71
2021/05/17 12:05:16;;;;;;;7.55;4.95;;;;;;;18.46;82.63;98823.52;1795039;78;21057;-68
2021/05/17 12:07:49;;;;;;;9.63;4.72;;;;;;;18.43;82.94;98823.02;1788723;78;20919;-73
2021/05/17 12:10:17;;;;;;;6.92;4.50;;;;;;;18.45;83.76;98799.47;1803753;78;20928;-74
2021/05/17 12:12:45;;;;;;;9.45;4.15;;;;;;;18.52;83.66;98810.17;1789729;79;21002;-70
2021/05/17 12:15:16;;;;;;;9.45;5.22;;;;;;;18.60;83.71;98800.97;1780523;78;21061;-72
2021/05/17 12:17:43;;;;;;;12.13;4.70;;;;;;;18.66;84.36;98802.95;1791888;78;21024;-69
2021/05/17 12:20:15;;;;;;;7.35;5.60;;;;;;;18.74;83.48;98799.47;1790615;78;21050;-72
2021/05/17 12:22:46;;;;;;;8.95;5.25;;;;;;;18.79;84.43;98797.98;1803033;78;21339;-74
2021/05/17 12:25:16;;;;;;;9.03;5.65;;;;;;;18.94;85.30;98800.23;1793124;78;20995;-68
2021/05/17 12:27:44;;;;;;;7.33;4.65;;;;;;;19.13;84.92;98808.27;1821084;78;21021;-74
2021/05/17 12:30:16;;;;;;;6.05;4.08;;;;;;;19.32;82.73;98813.13;1792493;78;21039;-71
2021/05/17 12:32:46;;;;;;;8.85;4.37;;;;;;;19.47;80.85;98810.59;1770913;79;20964;-73
2021/05/17 12:35:31;;;;;;;4.92;4.00;;;;;;;19.62;79.60;98809.38;1808565;79;20976;-69
2021/05/17 12:38:00;;;;;;;9.07;4.63;;;;;;;19.76;78.10;98800.72;1797067;79;20915;-67
2021/05/17 12:40:40;;;;;;;11.78;4.60;;;;;;;19.92;77.65;98805.91;1772291;79;21044;-77
2021/05/17 12:43:26;;;;;;;5.72;4.22;;;;;;;20.12;76.75;98802.77;1780486;79;21052;-72
2021/05/17 12:46:00;;;;;;;13.60;4.27;;;;;;;20.26;75.09;98798.05;1780655;79;21006;-71
2021/05/17 12:48:43;;;;;;;7.45;4.22;;;;;;;20.34;74.09;98790.55;1793779;79;21707;-72
2021/05/17 12:51:27;;;;;;;8.33;4.78;;;;;;;20.36;73.62;98793.34;1778552;79;21079;-74
2021/05/17 12:54:10;;;;;;;6.95;4.60;;;;;;;20.40;73.11;98796.45;1788383;79;21080;-75
2021/05/17 12:56:37;;;;;;;10.93;4.15;;;;;;;20.45;73.25;98798.06;1792069;79;21489;-79
2021/05/17 12:59:14;;;;;;;7.03;4.67;;;;;;;20.54;73.27;98790.38;1779289;79;20978;-78
2021/05/17 13:01:42;;;;;;;19.40;4.28;;;;;;;20.68;73.02;98796.20;1789529;79;21053;-71
2021/05/17 13:04:09;;;;;;;10.15;4.67;;;;;;;20.79;70.82;98793.12;1792467;79;21472;-71
2021/05/17 13:06:40;;;;;;;11.53;4.40;;;;;;;20.80;70.44;98785.98;1786644;79;21000;-70
2021/05/17 13:09:11;;;;;;;6.53;4.20;;;;;;;20.83;70.84;98779.00;1781275;79;21489;-72
2021/05/17 13:11:42;;;;;;;5.37;4.17;;;;;;;20.94;70.72;98775.41;1779212;79;20923;-72
2021/05/17 13:14:23;;;;;;;10.70;3.98;;;;;;;21.13;68.57;98773.22;1793953;79;21002;-71
2021/05/17 13:16:58;;;;;;;8.45;4.28;;;;;;;21.13;68.57;98773.22;1777849;79;20987;-68
2021/05/17 13:31:02;;;;;;;5.97;4.20;;;;;;;21.11;68.46;98776.55;1778525;79;20918;-71
2021/05/17 13:33:50;;;;;;;4.42;3.62;;;;;;;21.07;68.79;98772.13;1789510;79;21089;-74
2021/05/17 13:36:19;;;;;;;6.62;3.75;;;;;;;21.10;67.99;98773.58;1784513;79;20998;-78
2021/05/17 13:38:50;;;;;;;9.03;4.20;;;;;;;21.10;67.26;98772.27;1779286;79;21538;-72
2021/05/17 13:41:20;;;;;;;7.05;4.25;;;;;;;21.08;67.64;98779.56;1796102;79;21434;-67
2021/05/17 13:43:47;;;;;;;4.58;4.15;;;;;;;21.12;68.21;98784.31;1776982;79;21005;-72
2021/05/17 13:46:15;;;;;;;6.17;4.08;;;;;;;21.20;68.50;98779.39;1784149;79;20993;-69
2021/05/17 13:48:52;;;;;;;9.65;4.60;;;;;;;21.26;68.18;98774.22;1788350;79;21308;-74
2021/05/17 13:51:25;;;;;;;7.17;4.17;;;;;;;21.27;67.16;98768.42;1792476;79;21058;-82
2021/05/17 13:53:57;;;;;;;6.72;4.20;;;;;;;21.22;67.33;98762.86;1783914;79;20992;-76
2021/05/17 13:56:26;;;;;;;6.35;3.98;;;;;;;21.23;67.49;98761.34;1787084;79;21022;-75
2021/05/17 13:58:53;;;;;;;7.92;4.00;;;;;;;21.33;67.26;98763.71;1783983;79;21647;-66
2021/05/17 14:01:20;;;;;;;5.83;3.95;;;;;;;21.33;67.26;98763.71;1791745;79;21371;-69
2021/05/17 14:03:50;;;;;;;11.22;4.05;;;;;;;21.37;66.90;98761.52;1790138;79;21006;-74
2021/05/17 14:06:17;;;;;;;5.35;3.98;;;;;;;21.47;66.55;98746.16;1770494;80;20951;-72
2021/05/17 14:08:44;;;;;;;9.65;4.40;;;;;;;21.47;66.55;98746.16;1793660;80;21216;-70
2021/05/17 14:11:12;;;;;;;6.42;4.35;;;;;;;21.47;66.47;98756.75;1794681;80;21491;-67
2021/05/17 14:13:39;;;;;;;10.65;4.25;;;;;;;21.42;66.42;98757.30;1792052;80;20959;-80
2021/05/17 14:16:07;;;;;;;10.45;4.75;;;;;;;21.38;66.92;98755.21;1792472;80;20892;-77
2021/05/17 14:18:34;;;;;;;8.45;4.65;;;;;;;21.41;66.80;98757.48;1791455;80;21556;-71
2021/05/17 14:21:03;;;;;;;6.92;4.30;;;;;;;21.34;66.96;98753.94;1791039;79;21002;-73
2021/05/17 14:23:31;;;;;;;11.80;4.50;;;;;;;21.30;66.82;98745.55;1767522;80;21052;-69
2021/05/17 14:25:59;;;;;;;7.97;3.95;;;;;;;21.33;66.91;98747.82;1765425;80;20970;-71
2021/05/17 14:28:27;;;;;;;11.35;4.33;;;;;;;21.40;66.42;98744.75;1784577;80;20886;-72
2021/05/17 14:30:55;;;;;;;9.08;4.50;;;;;;;21.40;66.42;98744.75;1783145;80;20993;-74
2021/05/17 14:33:23;;;;;;;6.10;4.17;;;;;;;21.36;66.61;98743.48;1779253;80;20993;-77
2021/05/17 14:35:50;;;;;;;7.78;4.12;;;;;;;21.29;67.17;98747.38;1779287;80;21135;-70
